ENAL Información de aeropuertos

Información de pistas
Pista 07 Longitud 7592 ft Ancho 148 ft
Elevación 34 ft Umbral 490 ft Rumbo 65
Pista 25 Longitud 7592 ft Ancho 148 ft
Elevación 48 ft Umbral 755 ft Rumbo 245
Frecuencias
Tipo ATIS Nombre ATIS Frequencia 128.65 MHZ
Tipo TWR Nombre TWR Frequencia 119.85 MHZ
Radioayudas
Tipo NDB Nombre Vigra Frequencia 355 KHZ
Tipo TACAN Nombre Vigra Frequencia 112400 KHZ
Tipo VOR-DME Nombre Vigra Frequencia 115800 KHZ
Información meteorológica y NOTAM
ADDS - METARS form results

(0328 UTC 20 January 2021)
Data provider http://aviationweather.gov/metar/data/
 
METAR text: ENAL 200320Z AUTO 13009KT 9999 NCD 01/M06 Q0994
Conditions at: ENAL (ALESUND/VIGRA , NO) observed 0320 UTC 20 January 2021
Temperature: 1.0°C (34°F)
Dewpoint: -6.0°C (21°F) [RH = 59%]
Pressure (altimeter): 29.35 inches Hg (994.0 mb)
Winds: from the SE (130 degrees) at 10 MPH (9 knots; 4.6 m/s)
Visibility: 6 or more miles (10+ km)
Ceiling: at least 12,000 feet AGL
Clouds: sky clear below 12,000 feet AGL
Weather: no significant weather observed at this time

METAR text: ENAL 200250Z AUTO 13010KT 9999 NCD 02/M05 Q0994
Conditions at: ENAL (ALESUND/VIGRA , NO) observed 0250 UTC 20 January 2021
Temperature: 2.0°C (36°F)
Dewpoint: -5.0°C (23°F) [RH = 60%]
Pressure (altimeter): 29.35 inches Hg (994.0 mb)
Winds: from the SE (130 degrees) at 12 MPH (10 knots; 5.1 m/s)
Visibility: 6 or more miles (10+ km)
Ceiling: at least 12,000 feet AGL
Clouds: sky clear below 12,000 feet AGL
Weather: no significant weather observed at this time

Forecast for: ENAL (ALESUND/VIGRA , NO)
Text: TAF ENAL 200200Z 2003/2012 10012KT CAVOK
Forecast period: 0300 to 1200 UTC 20 January 2021
Forecast type: FROM: standard forecast or significant change
Winds: from the E (100 degrees) at 14 MPH (12 knots; 6.2 m/s)
Visibility: 6 or more miles (10+ km)
Ceiling: unknown
Clouds: missing
Weather: NSW  (no significant weather)